createdAt,value
2023-05-01T00:00:53.590Z,1014.88
2023-05-01T00:01:53.313Z,1014.84
2023-05-01T00:02:53.355Z,1014.85
2023-05-01T00:03:53.411Z,1014.85
2023-05-01T00:04:53.309Z,1014.80
2023-05-01T00:05:53.269Z,1014.77
2023-05-01T00:06:52.725Z,1014.75
2023-05-01T00:07:53.247Z,1014.77
2023-05-01T00:08:52.568Z,1014.72
2023-05-01T00:09:53.228Z,1014.71
2023-05-01T00:10:53.443Z,1014.73
2023-05-01T00:11:52.527Z,1014.70
2023-05-01T00:12:53.189Z,1014.69
2023-05-01T00:13:54.491Z,1014.69
2023-05-01T00:14:53.169Z,1014.66
2023-05-01T00:15:52.581Z,1014.65
2023-05-01T00:16:52.539Z,1014.61
2023-05-01T00:17:52.511Z,1014.59
2023-05-01T00:18:52.455Z,1014.62
2023-05-01T00:19:53.487Z,1014.56
2023-05-01T00:20:53.363Z,1014.57
2023-05-01T00:21:53.141Z,1014.51
2023-05-01T00:22:53.326Z,1014.54
2023-05-01T00:23:53.340Z,1014.51
2023-05-01T00:24:53.058Z,1014.48
2023-05-01T00:25:53.057Z,1014.47
2023-05-01T00:26:53.038Z,1014.47
2023-05-01T00:27:53.263Z,1014.45
2023-05-01T00:28:53.000Z,1014.47
2023-05-01T00:29:53.058Z,1014.46
2023-05-01T00:30:53.017Z,1014.45
2023-05-01T00:31:53.012Z,1014.43
2023-05-01T00:32:54.269Z,1014.44
2023-05-01T00:33:52.296Z,1014.40
2023-05-01T00:34:52.958Z,1014.40
2023-05-01T00:35:52.264Z,1014.38
2023-05-01T00:36:52.932Z,1014.36
2023-05-01T00:37:52.930Z,1014.41
2023-05-01T00:38:52.898Z,1014.37
2023-05-01T00:39:52.906Z,1014.39
2023-05-01T00:40:52.887Z,1014.35
2023-05-01T00:41:52.192Z,1014.33
2023-05-01T00:42:54.128Z,1014.32
2023-05-01T00:43:52.208Z,1014.27
2023-05-01T00:44:53.124Z,1014.30
2023-05-01T00:45:52.859Z,1014.28
2023-05-01T00:46:52.828Z,1014.20
2023-05-01T00:47:52.865Z,1014.20
2023-05-01T00:48:52.141Z,1014.20
2023-05-01T00:49:52.875Z,1014.20
2023-05-01T00:50:52.781Z,1014.17
2023-05-01T00:51:52.077Z,1014.13
2023-05-01T00:52:52.070Z,1014.13
2023-05-01T00:53:52.090Z,1014.12
2023-05-01T00:54:52.978Z,1014.10
2023-05-01T00:55:52.723Z,1014.08
2023-05-01T00:56:52.955Z,1014.08
2023-05-01T00:57:52.700Z,1014.12
2023-05-01T00:58:52.674Z,1014.04
2023-05-01T00:59:52.742Z,1014.07
2023-05-01T01:00:53.998Z,1014.04
2023-05-01T01:01:54.896Z,1014.06
2023-05-01T01:02:52.766Z,1014.01
2023-05-01T01:03:52.739Z,1014.03
2023-05-01T01:04:52.944Z,1014.02
2023-05-01T01:05:52.858Z,1013.96
2023-05-01T01:06:52.834Z,1013.96
2023-05-01T01:07:52.593Z,1013.97
2023-05-01T01:08:52.847Z,1013.95
2023-05-01T01:09:52.574Z,1013.90
2023-05-01T01:10:52.836Z,1013.93
2023-05-01T01:11:53.806Z,1013.92
2023-05-01T01:12:53.793Z,1013.84
2023-05-01T01:13:52.814Z,1013.91
2023-05-01T01:14:52.764Z,1013.87
2023-05-01T01:15:52.506Z,1013.84
2023-05-01T01:16:52.748Z,1013.83
2023-05-01T01:17:52.488Z,1013.81
2023-05-01T01:18:52.738Z,1013.78
2023-05-01T01:19:52.743Z,1013.77
2023-05-01T01:20:52.455Z,1013.78
2023-05-01T01:21:52.440Z,1013.75
2023-05-01T01:22:51.829Z,1013.78
2023-05-01T01:23:52.399Z,1013.74
2023-05-01T01:24:52.407Z,1013.76
2023-05-01T01:25:52.408Z,1013.71
2023-05-01T01:26:52.405Z,1013.71
2023-05-01T01:27:51.702Z,1013.70
2023-05-01T01:28:52.628Z,1013.68
2023-05-01T01:29:52.354Z,1013.71
2023-05-01T01:30:51.682Z,1013.67
2023-05-01T01:31:53.578Z,1013.66
2023-05-01T01:32:52.342Z,1013.62
2023-05-01T01:33:52.292Z,1013.61
2023-05-01T01:34:52.534Z,1013.58
2023-05-01T01:35:52.291Z,1013.63
2023-05-01T01:36:52.280Z,1013.57
2023-05-01T01:37:52.500Z,1013.64
2023-05-01T01:38:52.235Z,1013.58
2023-05-01T01:39:52.484Z,1013.54
2023-05-01T01:40:52.236Z,1013.60
2023-05-01T01:41:52.231Z,1013.54
2023-05-01T01:42:52.220Z,1013.57
2023-05-01T01:43:52.466Z,1013.52
2023-05-01T01:44:51.499Z,1013.54
2023-05-01T01:45:52.253Z,1013.51
2023-05-01T01:46:52.178Z,1013.53
2023-05-01T01:47:52.458Z,1013.45
2023-05-01T01:48:52.135Z,1013.46
2023-05-01T01:49:52.134Z,1013.48
2023-05-01T01:50:51.448Z,1013.51
2023-05-01T01:51:52.116Z,1013.49
2023-05-01T01:52:53.355Z,1013.45
2023-05-01T01:53:53.356Z,1013.44
2023-05-01T01:54:53.332Z,1013.43
2023-05-01T01:55:52.073Z,1013.42
2023-05-01T01:56:53.318Z,1013.42
2023-05-01T01:57:52.300Z,1013.38
2023-05-01T01:58:53.312Z,1013.36
2023-05-01T01:59:52.280Z,1013.37
2023-05-01T02:00:52.254Z,1013.34
2023-05-01T02:01:52.306Z,1013.34
2023-05-01T02:02:52.094Z,1013.32
2023-05-01T02:03:51.402Z,1013.27
2023-05-01T02:04:51.973Z,1013.26
2023-05-01T02:05:51.969Z,1013.25
2023-05-01T02:06:51.334Z,1013.20
2023-05-01T02:07:51.274Z,1013.17
2023-05-01T02:08:51.274Z,1013.17
2023-05-01T02:09:53.205Z,1013.18
2023-05-01T02:10:53.168Z,1013.17
2023-05-01T02:11:53.165Z,1013.18
2023-05-01T02:12:52.164Z,1013.13
2023-05-01T02:13:52.152Z,1013.12
2023-05-01T02:14:51.872Z,1013.16
2023-05-01T02:15:51.223Z,1013.14
2023-05-01T02:16:51.151Z,1013.12
2023-05-01T02:17:51.201Z,1013.16
2023-05-01T02:18:51.818Z,1013.14
2023-05-01T02:19:51.122Z,1013.12
2023-05-01T02:20:51.810Z,1013.13
2023-05-01T02:21:51.787Z,1013.12
2023-05-01T02:22:51.782Z,1013.09
2023-05-01T02:23:51.748Z,1013.13
2023-05-01T02:24:52.037Z,1013.12
2023-05-01T02:25:51.065Z,1013.09
2023-05-01T02:26:51.731Z,1013.09
2023-05-01T02:27:51.046Z,1013.09
2023-05-01T02:28:51.699Z,1013.08
2023-05-01T02:29:51.716Z,1013.07
2023-05-01T02:30:51.011Z,1013.06
2023-05-01T02:31:51.019Z,1013.06
2023-05-01T02:32:51.717Z,1013.05
2023-05-01T02:33:51.648Z,1013.01
2023-05-01T02:34:51.654Z,1013.00
2023-05-01T02:35:50.963Z,1013.01
2023-05-01T02:36:50.948Z,1013.02
2023-05-01T02:37:51.627Z,1012.97
2023-05-01T02:38:51.589Z,1012.97
2023-05-01T02:39:51.598Z,1012.93
2023-05-01T02:40:51.598Z,1012.92
2023-05-01T02:41:50.896Z,1012.92
2023-05-01T02:42:50.882Z,1012.91
2023-05-01T02:43:51.534Z,1012.89
2023-05-01T02:44:51.546Z,1012.88
2023-05-01T02:45:51.576Z,1012.81
2023-05-01T02:46:50.882Z,1012.80
2023-05-01T02:47:50.866Z,1012.83
2023-05-01T02:48:51.483Z,1012.75
2023-05-01T02:49:51.489Z,1012.76
2023-05-01T02:50:51.494Z,1012.77
2023-05-01T02:51:51.471Z,1012.73
2023-05-01T02:52:51.482Z,1012.68
2023-05-01T02:53:51.435Z,1012.66
2023-05-01T02:54:50.797Z,1012.65
2023-05-01T02:55:51.441Z,1012.68
2023-05-01T02:56:51.415Z,1012.66
2023-05-01T02:57:51.409Z,1012.67
2023-05-01T02:58:51.376Z,1012.65
2023-05-01T02:59:50.710Z,1012.66
2023-05-01T03:00:51.442Z,1012.58
2023-05-01T03:01:51.550Z,1012.61
2023-05-01T03:02:50.691Z,1012.63
2023-05-01T03:03:51.325Z,1012.61
2023-05-01T03:04:51.327Z,1012.57
2023-05-01T03:05:50.641Z,1012.56
2023-05-01T03:06:50.663Z,1012.52
2023-05-01T03:07:51.339Z,1012.60
2023-05-01T03:08:51.268Z,1012.53
2023-05-01T03:09:51.276Z,1012.56
2023-05-01T03:10:51.262Z,1012.46
2023-05-01T03:11:50.560Z,1012.55
2023-05-01T03:12:51.244Z,1012.51
2023-05-01T03:13:51.211Z,1012.50
2023-05-01T03:14:51.219Z,1012.52
2023-05-01T03:15:51.206Z,1012.55
2023-05-01T03:16:50.583Z,1012.55
2023-05-01T03:17:51.218Z,1012.43
2023-05-01T03:18:50.533Z,1012.48
2023-05-01T03:19:51.165Z,1012.45
2023-05-01T03:20:51.153Z,1012.39
2023-05-01T03:21:51.145Z,1012.39
2023-05-01T03:22:51.129Z,1012.38
2023-05-01T03:23:51.110Z,1012.36
2023-05-01T03:24:51.112Z,1012.36
2023-05-01T03:25:51.112Z,1012.31
2023-05-01T03:26:51.089Z,1012.32
2023-05-01T03:27:52.149Z,1012.29
2023-05-01T03:28:51.047Z,1012.28
2023-05-01T03:29:51.058Z,1012.30
2023-05-01T03:30:51.042Z,1012.26
2023-05-01T03:31:51.084Z,1012.30
2023-05-01T03:32:51.110Z,1012.27
2023-05-01T03:33:50.992Z,1012.29
2023-05-01T03:34:51.033Z,1012.28
2023-05-01T03:35:50.990Z,1012.30
2023-05-01T03:36:50.978Z,1012.26
2023-05-01T03:37:50.976Z,1012.27
2023-05-01T03:38:50.944Z,1012.30
2023-05-01T03:39:50.264Z,1012.26
2023-05-01T03:40:50.250Z,1012.26
2023-05-01T03:41:50.923Z,1012.23
2023-05-01T03:42:50.225Z,1012.23
2023-05-01T03:43:50.883Z,1012.22
2023-05-01T03:44:50.212Z,1012.21
2023-05-01T03:45:50.233Z,1012.15
2023-05-01T03:46:50.879Z,1012.21
2023-05-01T03:47:50.224Z,1012.17
2023-05-01T03:48:50.830Z,1012.19
2023-05-01T03:49:50.151Z,1012.15
2023-05-01T03:50:50.142Z,1012.18
2023-05-01T03:51:50.134Z,1012.18
2023-05-01T03:52:50.817Z,1012.17
2023-05-01T03:53:50.792Z,1012.17
2023-05-01T03:54:51.043Z,1012.17
2023-05-01T03:55:50.775Z,1012.15
2023-05-01T03:56:50.079Z,1012.09
2023-05-01T03:57:50.066Z,1012.14
2023-05-01T03:58:50.077Z,1012.11
2023-05-01T03:59:50.733Z,1012.10
2023-05-01T04:00:50.728Z,1012.07
2023-05-01T04:01:50.941Z,1012.09
2023-05-01T04:02:50.152Z,1012.11
2023-05-01T04:03:50.135Z,1012.07
2023-05-01T04:04:49.996Z,1012.06
2023-05-01T04:05:50.671Z,1012.08
2023-05-01T04:06:50.743Z,1012.04
2023-05-01T04:07:50.646Z,1012.02
2023-05-01T04:08:50.616Z,1012.04
2023-05-01T04:09:49.942Z,1012.05
2023-05-01T04:10:50.629Z,1012.04
2023-05-01T04:11:50.607Z,1012.02
2023-05-01T04:12:50.589Z,1012.01
2023-05-01T04:13:50.560Z,1012.04
2023-05-01T04:14:49.892Z,1012.03
2023-05-01T04:15:49.886Z,1012.02
2023-05-01T04:16:50.557Z,1012.03
2023-05-01T04:17:50.619Z,1012.03
2023-05-01T04:18:49.851Z,1011.98
2023-05-01T04:19:50.525Z,1012.03
2023-05-01T04:20:49.824Z,1011.98
2023-05-01T04:21:50.499Z,1011.95
2023-05-01T04:22:50.483Z,1011.99
2023-05-01T04:23:49.815Z,1011.97
2023-05-01T04:24:51.727Z,1012.00
2023-05-01T04:25:49.753Z,1012.00
2023-05-01T04:26:49.769Z,1011.94
2023-05-01T04:27:50.688Z,1011.97
2023-05-01T04:28:50.402Z,1011.94
2023-05-01T04:29:50.407Z,1011.96
2023-05-01T04:30:50.408Z,1011.95
2023-05-01T04:31:49.755Z,1011.92
2023-05-01T04:32:50.378Z,1011.89
2023-05-01T04:33:50.361Z,1011.89
2023-05-01T04:34:50.351Z,1011.94
2023-05-01T04:35:49.662Z,1011.96
2023-05-01T04:36:50.600Z,1011.89
2023-05-01T04:37:50.302Z,1011.92
2023-05-01T04:38:49.627Z,1011.92
2023-05-01T04:39:50.292Z,1011.90
2023-05-01T04:40:50.284Z,1011.89
2023-05-01T04:41:50.272Z,1011.91
2023-05-01T04:42:50.260Z,1011.91
2023-05-01T04:43:50.260Z,1011.96
2023-05-01T04:44:51.502Z,1011.97
2023-05-01T04:45:49.533Z,1011.96
2023-05-01T04:46:50.275Z,1011.97
2023-05-01T04:47:49.580Z,1011.98
2023-05-01T04:48:50.200Z,1012.08
2023-05-01T04:49:49.486Z,1012.04
2023-05-01T04:50:49.515Z,1012.03
2023-05-01T04:51:50.161Z,1012.09
2023-05-01T04:52:50.150Z,1012.05
2023-05-01T04:53:50.146Z,1012.07
2023-05-01T04:54:49.524Z,1012.06
2023-05-01T04:55:49.532Z,1012.10
2023-05-01T04:56:50.117Z,1012.07
2023-05-01T04:57:49.484Z,1012.07
2023-05-01T04:58:50.092Z,1012.11
2023-05-01T04:59:50.081Z,1012.11
2023-05-01T05:00:49.399Z,1012.11
2023-05-01T05:01:49.439Z,1012.08
2023-05-01T05:02:49.460Z,1012.06
2023-05-01T05:03:50.438Z,1012.11
2023-05-01T05:04:50.028Z,1012.14
2023-05-01T05:05:49.345Z,1012.04
2023-05-01T05:06:49.451Z,1012.10
2023-05-01T05:07:49.326Z,1012.13
2023-05-01T05:08:49.980Z,1012.10
2023-05-01T05:09:49.273Z,1012.10
2023-05-01T05:10:49.958Z,1012.08
2023-05-01T05:11:49.953Z,1012.17
2023-05-01T05:12:49.264Z,1012.14
2023-05-01T05:13:49.240Z,1012.12
2023-05-01T05:14:49.934Z,1012.15
2023-05-01T05:15:49.906Z,1012.15
2023-05-01T05:16:50.160Z,1012.15
2023-05-01T05:17:49.273Z,1012.11
2023-05-01T05:18:49.211Z,1012.13
2023-05-01T05:19:49.860Z,1012.14
2023-05-01T05:20:49.852Z,1012.13
2023-05-01T05:21:49.839Z,1012.10
2023-05-01T05:22:49.810Z,1012.09
2023-05-01T05:23:49.818Z,1012.12
2023-05-01T05:24:50.077Z,1012.10
2023-05-01T05:25:49.796Z,1012.05
2023-05-01T05:26:49.865Z,1012.08
2023-05-01T05:27:49.786Z,1012.05
2023-05-01T05:28:49.131Z,1012.04
2023-05-01T05:29:50.016Z,1012.08
2023-05-01T05:30:49.752Z,1012.10
2023-05-01T05:31:49.816Z,1012.06
2023-05-01T05:32:50.061Z,1012.10
2023-05-01T05:33:49.951Z,1012.10
2023-05-01T05:34:49.949Z,1012.14
2023-05-01T05:35:49.697Z,1012.14
2023-05-01T05:36:49.927Z,1012.17
2023-05-01T05:37:49.936Z,1012.11
2023-05-01T05:38:49.900Z,1012.15
2023-05-01T05:39:49.880Z,1012.19
2023-05-01T05:40:49.631Z,1012.18
2023-05-01T05:41:49.630Z,1012.19
2023-05-01T05:42:49.602Z,1012.17
2023-05-01T05:43:49.879Z,1012.17
2023-05-01T05:44:49.890Z,1012.23
2023-05-01T05:45:49.895Z,1012.24
2023-05-01T05:46:49.571Z,1012.16
2023-05-01T05:47:50.001Z,1012.16
2023-05-01T05:48:49.902Z,1012.16
2023-05-01T05:49:49.771Z,1012.11
2023-05-01T05:50:49.764Z,1012.10
2023-05-01T05:51:49.520Z,1012.11
2023-05-01T05:52:48.831Z,1012.21
2023-05-01T05:53:49.479Z,1012.21
2023-05-01T05:54:49.741Z,1012.21
2023-05-01T05:55:48.791Z,1012.18
2023-05-01T05:56:49.457Z,1012.19
2023-05-01T05:57:48.753Z,1012.15
2023-05-01T05:58:49.420Z,1012.13
2023-05-01T05:59:48.745Z,1012.10
2023-05-01T06:00:49.423Z,1012.13
2023-05-01T06:01:48.737Z,1012.11
2023-05-01T06:02:49.821Z,1012.06
2023-05-01T06:03:49.437Z,1012.17
2023-05-01T06:04:49.373Z,1012.14
2023-05-01T06:05:48.722Z,1012.14
2023-05-01T06:06:49.420Z,1012.12
2023-05-01T06:07:49.344Z,1012.09
2023-05-01T06:08:49.313Z,1012.02
2023-05-01T06:09:48.638Z,1012.01
2023-05-01T06:10:49.310Z,1012.02
2023-05-01T06:11:49.304Z,1012.01
2023-05-01T06:12:53.089Z,1012.01
2023-05-01T06:13:49.605Z,1011.99
2023-05-01T06:14:49.264Z,1011.98
2023-05-01T06:15:49.543Z,1011.95
2023-05-01T06:16:49.242Z,1011.92
2023-05-01T06:17:49.277Z,1011.94
2023-05-01T06:18:49.476Z,1011.99
2023-05-01T06:19:49.444Z,1011.96
2023-05-01T06:20:49.434Z,1011.95
2023-05-01T06:21:49.197Z,1011.94
2023-05-01T06:22:49.181Z,1011.93
2023-05-01T06:23:49.148Z,1011.98
2023-05-01T06:24:49.422Z,1011.99
2023-05-01T06:25:49.146Z,1011.99
2023-05-01T06:26:49.412Z,1012.03
2023-05-01T06:27:49.126Z,1012.07
2023-05-01T06:28:49.393Z,1011.94
2023-05-01T06:29:49.332Z,1011.89
2023-05-01T06:30:49.417Z,1011.92
2023-05-01T06:31:49.123Z,1011.92
2023-05-01T06:32:49.378Z,1011.91
2023-05-01T06:33:49.040Z,1011.92
2023-05-01T06:34:49.043Z,1011.91
2023-05-01T06:35:49.059Z,1011.93
2023-05-01T06:36:49.285Z,1011.92
2023-05-01T06:37:49.019Z,1011.93
2023-05-01T06:38:49.022Z,1011.93
2023-05-01T06:39:48.327Z,1011.94
2023-05-01T06:40:49.243Z,1011.99
2023-05-01T06:41:49.216Z,1011.93
2023-05-01T06:42:49.209Z,1011.96
2023-05-01T06:43:48.931Z,1012.01
2023-05-01T06:44:49.180Z,1011.99
2023-05-01T06:45:48.934Z,1012.11
2023-05-01T06:46:48.941Z,1011.97
2023-05-01T06:47:49.212Z,1012.09
2023-05-01T06:48:49.159Z,1011.97
2023-05-01T06:49:49.131Z,1011.99
2023-05-01T06:50:48.876Z,1011.97
2023-05-01T06:51:48.866Z,1011.96
2023-05-01T06:52:48.852Z,1011.96
2023-05-01T06:53:48.825Z,1011.98
2023-05-01T06:54:48.830Z,1011.99
2023-05-01T06:55:48.134Z,1011.96
2023-05-01T06:56:48.805Z,1011.97
2023-05-01T06:57:48.098Z,1011.96
2023-05-01T06:58:48.101Z,1011.94
2023-05-01T06:59:48.778Z,1011.90
2023-05-01T07:00:48.793Z,1011.90
2023-05-01T07:01:48.780Z,1011.89
2023-05-01T07:02:48.149Z,1011.89
2023-05-01T07:03:48.057Z,1011.92
2023-05-01T07:04:48.715Z,1011.87
2023-05-01T07:05:48.705Z,1011.85
2023-05-01T07:06:48.780Z,1011.88
2023-05-01T07:07:58.049Z,1011.92
2023-05-01T07:08:49.656Z,1011.91
2023-05-01T07:09:47.985Z,1011.88
2023-05-01T07:10:47.981Z,1011.87
2023-05-01T07:11:48.645Z,1011.82
2023-05-01T07:12:48.628Z,1011.83
2023-05-01T07:13:47.968Z,1011.82
2023-05-01T07:14:48.619Z,1011.81
2023-05-01T07:15:47.917Z,1011.78
2023-05-01T07:16:47.933Z,1011.84
2023-05-01T07:17:48.627Z,1011.80
2023-05-01T07:18:47.911Z,1011.81
2023-05-01T07:19:48.552Z,1011.80
2023-05-01T07:20:47.853Z,1011.82
2023-05-01T07:21:48.566Z,1011.83
2023-05-01T07:22:48.519Z,1011.82
2023-05-01T07:23:48.495Z,1011.87
2023-05-01T07:24:48.515Z,1011.91
2023-05-01T07:25:48.490Z,1012.00
2023-05-01T07:26:47.786Z,1011.97
2023-05-01T07:27:48.485Z,1012.03
2023-05-01T07:28:48.446Z,1012.10
2023-05-01T07:29:48.444Z,1012.07
2023-05-01T07:30:48.430Z,1012.07
2023-05-01T07:31:48.536Z,1012.01
2023-05-01T07:32:48.479Z,1011.96
2023-05-01T07:33:48.388Z,1011.99
2023-05-01T07:34:48.400Z,1012.02
2023-05-01T07:35:48.378Z,1011.99
2023-05-01T07:36:48.372Z,1011.94
2023-05-01T07:37:47.676Z,1011.95
2023-05-01T07:38:48.331Z,1011.95
2023-05-01T07:39:47.645Z,1011.93
2023-05-01T07:40:48.335Z,1011.86
2023-05-01T07:41:47.633Z,1011.89
2023-05-01T07:42:47.632Z,1011.88
2023-05-01T07:43:47.641Z,1011.86
2023-05-01T07:44:48.281Z,1011.85
2023-05-01T07:45:48.364Z,1011.84
2023-05-01T07:46:47.590Z,1011.81
2023-05-01T07:47:47.619Z,1011.83
2023-05-01T07:48:47.563Z,1011.87
2023-05-01T07:49:47.531Z,1011.86
2023-05-01T07:50:48.210Z,1011.83
2023-05-01T07:51:47.525Z,1011.82
2023-05-01T07:52:48.189Z,1011.85
2023-05-01T07:53:48.177Z,1011.81
2023-05-01T07:54:47.486Z,1011.78
2023-05-01T07:55:48.160Z,1011.78
2023-05-01T07:56:49.663Z,1011.73
2023-05-01T08:00:01.020Z,1011.75
2023-05-01T08:01:00.253Z,1011.73
2023-05-01T08:02:00.266Z,1011.74
2023-05-01T08:02:59.751Z,1011.74
2023-05-01T08:03:59.629Z,1011.79
2023-05-01T08:05:00.244Z,1011.80
2023-05-01T08:05:59.595Z,1011.78
2023-05-01T08:06:59.543Z,1011.79
2023-05-01T08:08:00.461Z,1011.80
2023-05-01T08:08:59.482Z,1011.81
2023-05-01T08:10:00.254Z,1011.84
2023-05-01T08:11:00.154Z,1011.81
2023-05-01T08:12:00.400Z,1011.84
2023-05-01T08:13:00.104Z,1011.79
2023-05-01T08:14:00.863Z,1011.76
2023-05-01T08:14:59.400Z,1011.82
2023-05-01T08:16:00.362Z,1011.79
2023-05-01T08:17:00.116Z,1011.79
2023-05-01T08:18:00.407Z,1011.72
2023-05-01T08:19:00.054Z,1011.78
2023-05-01T08:20:00.063Z,1011.79
2023-05-01T08:20:59.366Z,1011.80
2023-05-01T08:22:00.031Z,1011.79
2023-05-01T08:23:00.005Z,1011.79
2023-05-01T08:24:00.005Z,1011.77
2023-05-01T08:25:00.240Z,1011.75
2023-05-01T08:25:59.986Z,1011.76
2023-05-01T08:27:00.247Z,1011.73
2023-05-01T08:27:59.945Z,1011.73
2023-05-01T08:28:59.952Z,1011.74
2023-05-01T08:29:59.981Z,1011.71
2023-05-01T08:31:00.209Z,1011.68
2023-05-01T08:31:59.337Z,1011.70
2023-05-01T08:32:59.252Z,1011.69
2023-05-01T08:34:00.161Z,1011.64
2023-05-01T08:35:00.146Z,1011.67
2023-05-01T08:36:00.185Z,1011.70
2023-05-01T08:37:00.116Z,1011.70
2023-05-01T08:38:00.126Z,1011.73
2023-05-01T08:39:00.107Z,1011.70
2023-05-01T08:39:59.840Z,1011.69
2023-05-01T08:40:59.833Z,1011.67
2023-05-01T08:42:00.054Z,1011.74
2023-05-01T08:43:00.077Z,1011.71
2023-05-01T08:43:59.790Z,1011.66
2023-05-01T08:44:59.782Z,1011.73
2023-05-01T08:46:00.034Z,1011.68
2023-05-01T08:46:59.873Z,1011.71
2023-05-01T08:47:59.758Z,1011.75
2023-05-01T08:48:59.742Z,1011.72
2023-05-01T08:49:59.816Z,1011.71
2023-05-01T08:50:59.035Z,1011.71
2023-05-01T08:51:59.725Z,1011.68
2023-05-01T08:52:59.673Z,1011.70
2023-05-01T08:53:59.007Z,1011.69
2023-05-01T08:54:59.674Z,1011.69
2023-05-01T08:55:58.976Z,1011.67
2023-05-01T08:56:59.652Z,1011.66
2023-05-01T08:57:59.625Z,1011.63
2023-05-01T08:58:59.638Z,1011.63
2023-05-01T08:59:59.857Z,1011.63
2023-05-01T09:00:59.607Z,1011.64
2023-05-01T09:01:59.624Z,1011.63
2023-05-01T09:02:58.976Z,1011.62
2023-05-01T09:03:59.603Z,1011.58
2023-05-01T09:04:59.563Z,1011.59
2023-05-01T09:06:00.837Z,1011.55
2023-05-01T09:06:59.542Z,1011.57
2023-05-01T09:07:59.796Z,1011.63
2023-05-01T09:08:59.746Z,1011.59
2023-05-01T09:09:59.508Z,1011.58
2023-05-01T09:11:00.754Z,1011.55
2023-05-01T09:11:58.793Z,1011.53
2023-05-01T09:12:58.796Z,1011.52
2023-05-01T09:13:58.810Z,1011.48
2023-05-01T09:14:59.449Z,1011.45
2023-05-01T09:15:59.464Z,1011.44
2023-05-01T09:16:59.440Z,1011.48
2023-05-01T09:18:01.656Z,1011.48
2023-05-01T09:18:58.716Z,1011.47
2023-05-01T09:19:59.432Z,1011.42
2023-05-01T09:20:59.392Z,1011.39
2023-05-01T09:21:59.646Z,1011.34
2023-05-01T09:22:58.677Z,1011.33
2023-05-01T09:23:59.614Z,1011.31
2023-05-01T09:24:58.654Z,1011.29
2023-05-01T09:25:58.648Z,1011.24
2023-05-01T09:26:59.312Z,1011.22
2023-05-01T09:27:59.311Z,1011.21
2023-05-01T09:28:59.310Z,1011.24
2023-05-01T09:29:59.353Z,1011.29
2023-05-01T09:30:59.281Z,1011.26
2023-05-01T09:31:58.641Z,1011.27
2023-05-01T09:32:59.560Z,1011.33
2023-05-01T09:33:59.486Z,1011.33
2023-05-01T09:34:59.474Z,1011.32
2023-05-01T09:35:59.229Z,1011.34
2023-05-01T09:36:59.488Z,1011.32
2023-05-01T09:37:59.442Z,1011.34
2023-05-01T09:38:59.445Z,1011.33
2023-05-01T09:39:59.488Z,1011.33
2023-05-01T09:40:59.410Z,1011.33
2023-05-01T09:41:59.427Z,1011.34
2023-05-01T09:42:59.386Z,1011.29
2023-05-01T09:43:59.166Z,1011.28
2023-05-01T09:44:59.388Z,1011.26
2023-05-01T09:45:59.160Z,1011.27
2023-05-01T09:46:59.381Z,1011.28
2023-05-01T09:47:59.142Z,1011.25
2023-05-01T09:48:59.187Z,1011.29
2023-05-01T09:49:59.558Z,1011.26
2023-05-01T09:50:59.326Z,1011.24
2023-05-01T09:51:59.306Z,1011.23
2023-05-01T09:52:59.302Z,1011.25
2023-05-01T09:53:59.034Z,1011.18
2023-05-01T09:54:59.030Z,1011.22
2023-05-01T09:55:59.019Z,1011.23
2023-05-01T09:56:58.367Z,1011.21
2023-05-01T09:57:58.997Z,1011.23
2023-05-01T09:58:58.992Z,1011.21
2023-05-01T09:59:58.975Z,1011.20
2023-05-01T10:00:58.990Z,1011.19
2023-05-01T10:01:59.282Z,1011.18
2023-05-01T10:02:59.344Z,1011.19
2023-05-01T10:03:58.305Z,1011.17
2023-05-01T10:04:58.943Z,1011.19
2023-05-01T10:05:58.272Z,1011.22
2023-05-01T10:06:58.965Z,1011.23
2023-05-01T10:07:58.915Z,1011.21
2023-05-01T10:08:58.892Z,1011.17
2023-05-01T10:10:00.748Z,1011.19
2023-05-01T10:10:58.167Z,1011.14
2023-05-01T10:11:58.838Z,1011.14
2023-05-01T10:12:59.101Z,1011.19
2023-05-01T10:13:59.082Z,1011.15
2023-05-01T10:15:00.541Z,1011.18
2023-05-01T10:15:58.129Z,1011.15
2023-05-01T10:16:58.802Z,1011.19
2023-05-01T10:17:58.200Z,1011.14
2023-05-01T10:18:58.857Z,1011.16
2023-05-01T10:19:59.160Z,1011.14
2023-05-01T10:20:58.792Z,1011.15
2023-05-01T10:21:58.724Z,1011.16
2023-05-01T10:22:58.048Z,1011.14
2023-05-01T10:23:58.054Z,1011.16
2023-05-01T10:24:58.041Z,1011.19
2023-05-01T10:26:00.237Z,1011.14
2023-05-01T10:26:58.678Z,1011.20
2023-05-01T10:27:58.735Z,1011.22
2023-05-01T10:28:58.007Z,1011.22
2023-05-01T10:29:58.397Z,1011.22
2023-05-01T10:30:58.713Z,1011.22
2023-05-01T10:31:58.069Z,1011.22
2023-05-01T10:32:58.008Z,1011.19
2023-05-01T10:33:58.625Z,1011.20
2023-05-01T10:34:58.302Z,1011.16
2023-05-01T10:35:57.916Z,1011.22
2023-05-01T10:36:58.589Z,1011.17
2023-05-01T10:37:57.910Z,1011.16
2023-05-01T10:38:57.880Z,1011.15
2023-05-01T10:39:58.588Z,1011.05
2023-05-01T10:40:57.879Z,1011.09
2023-05-01T10:41:57.864Z,1011.09
2023-05-01T10:42:57.832Z,1011.08
2023-05-01T10:43:57.826Z,1011.06
2023-05-01T10:44:58.172Z,1011.03
2023-05-01T10:45:57.874Z,1011.01
2023-05-01T10:46:58.519Z,1011.07
2023-05-01T10:47:57.877Z,1011.03
2023-05-01T10:48:58.461Z,1011.05
2023-05-01T10:49:57.756Z,1011.03
2023-05-01T10:50:58.641Z,1010.99
2023-05-01T10:51:58.437Z,1011.02
2023-05-01T10:52:57.768Z,1011.00
2023-05-01T10:53:58.400Z,1010.94
2023-05-01T10:54:58.637Z,1010.99
2023-05-01T10:55:57.730Z,1010.97
2023-05-01T10:56:58.368Z,1010.94
2023-05-01T10:57:57.691Z,1010.97
2023-05-01T10:58:57.692Z,1010.92
2023-05-01T10:59:58.341Z,1010.92
2023-05-01T11:00:58.330Z,1010.91
2023-05-01T11:01:58.346Z,1010.89
2023-05-01T11:02:57.647Z,1010.85
2023-05-01T11:03:57.614Z,1010.91
2023-05-01T11:04:57.981Z,1010.90
2023-05-01T11:05:58.419Z,1010.91
2023-05-01T11:06:58.301Z,1010.85
2023-05-01T11:07:58.262Z,1010.82
2023-05-01T11:08:58.259Z,1010.79
2023-05-01T11:09:58.233Z,1010.83
2023-05-01T11:10:57.553Z,1010.80
2023-05-01T11:11:57.541Z,1010.85
2023-05-01T11:12:58.201Z,1010.78
2023-05-01T11:13:57.530Z,1010.80
2023-05-01T11:14:58.485Z,1010.83
2023-05-01T11:15:58.246Z,1010.81
2023-05-01T11:16:57.489Z,1010.81
2023-05-01T11:17:58.234Z,1010.79
2023-05-01T11:18:57.442Z,1010.77
2023-05-01T11:19:58.162Z,1010.69
2023-05-01T11:20:57.432Z,1010.69
2023-05-01T11:21:58.098Z,1010.71
2023-05-01T11:22:57.464Z,1010.66
2023-05-01T11:23:58.086Z,1010.65
2023-05-01T11:24:58.420Z,1010.65
2023-05-01T11:25:58.038Z,1010.65
2023-05-01T11:26:58.039Z,1010.64
2023-05-01T11:27:57.368Z,1010.64
2023-05-01T11:28:58.034Z,1010.64
2023-05-01T11:29:58.018Z,1010.67
2023-05-01T11:30:58.015Z,1010.61
2023-05-01T11:31:58.042Z,1010.59
2023-05-01T11:32:57.343Z,1010.55
2023-05-01T11:33:57.296Z,1010.56
2023-05-01T11:34:57.556Z,1010.61
2023-05-01T11:35:57.957Z,1010.61
2023-05-01T11:36:57.928Z,1010.62
2023-05-01T11:37:57.953Z,1010.61
2023-05-01T11:38:57.236Z,1010.59
2023-05-01T11:39:57.913Z,1010.60
2023-05-01T11:40:57.218Z,1010.61
2023-05-01T11:41:57.905Z,1010.60
2023-05-01T11:42:59.133Z,1010.59
2023-05-01T11:43:57.890Z,1010.59
2023-05-01T11:44:57.426Z,1010.53
2023-05-01T11:45:57.183Z,1010.55
2023-05-01T11:46:57.823Z,1010.52
2023-05-01T11:47:57.860Z,1010.50
2023-05-01T11:48:57.816Z,1010.52
2023-05-01T11:49:57.802Z,1010.47
2023-05-01T11:50:57.109Z,1010.45
2023-05-01T11:51:57.779Z,1010.45
2023-05-01T11:52:57.788Z,1010.48
2023-05-01T11:53:57.765Z,1010.48
2023-05-01T11:54:57.753Z,1010.51
2023-05-01T11:55:57.724Z,1010.45
2023-05-01T11:56:57.050Z,1010.42
2023-05-01T11:57:57.025Z,1010.41
2023-05-01T11:58:57.770Z,1010.42
2023-05-01T11:59:57.699Z,1010.40
2023-05-01T12:00:57.671Z,1010.43
2023-05-01T12:01:57.008Z,1010.43
2023-05-01T12:02:57.078Z,1010.42
2023-05-01T12:03:57.791Z,1010.43
2023-05-01T12:04:57.847Z,1010.43
2023-05-01T12:05:57.107Z,1010.43
2023-05-01T12:06:57.629Z,1010.43
2023-05-01T12:07:56.955Z,1010.43